RWL140 EDLN-EDLW
Flight info
| Callsign | RWL140 |
|---|---|
| Flight time | N/A |
| Altitude | 5000 |
| Route | ABODU2N ABODU DCT MEVEL DCT DOMEG DOMEG2A |
| Aircraft | PA44/L-SDFGRY/S |
Departure
| Time | 2026-05-06 14:25 |
|---|---|
| Airport | Mönchengladbach Airport (EDLN) |
Arrival
| Time | N/A |
|---|---|
| Airport | Dortmund Airport (EDLW) |
| Time | Latitude | Longitude | Altitude | Speed | Heading |
|---|---|---|---|---|---|
| 2026-05-06 13:59 | 51.23183 | 6.49715 | 125 ft | 0 kts | 36° |
| 2026-05-06 14:11 | 51.23197 | 6.49748 | 123 ft | 8 kts | 98° |
| 2026-05-06 14:12 | 51.23158 | 6.49807 | 125 ft | 8 kts | 206° |
| 2026-05-06 14:12 | 51.23138 | 6.49782 | 124 ft | 0 kts | 218° |
| 2026-05-06 14:20 | 51.23123 | 6.49804 | 125 ft | 9 kts | 57° |
| 2026-05-06 14:20 | 51.23169 | 6.49911 | 125 ft | 12 kts | 90° |
| 2026-05-06 14:20 | 51.23112 | 6.50032 | 125 ft | 16 kts | 128° |
| 2026-05-06 14:20 | 51.23034 | 6.50188 | 125 ft | 20 kts | 129° |
| 2026-05-06 14:21 | 51.22937 | 6.50377 | 122 ft | 24 kts | 128° |
| 2026-05-06 14:21 | 51.22835 | 6.50585 | 125 ft | 24 kts | 129° |
| 2026-05-06 14:21 | 51.22726 | 6.50799 | 124 ft | 24 kts | 128° |
| 2026-05-06 14:21 | 51.22638 | 6.50972 | 125 ft | 11 kts | 127° |
| 2026-05-06 14:22 | 51.22629 | 6.51019 | 125 ft | 0 kts | 92° |
| 2026-05-06 14:23 | 51.22632 | 6.51050 | 122 ft | 7 kts | 66° |
| 2026-05-06 14:23 | 51.22674 | 6.51095 | 122 ft | 9 kts | 2° |
| 2026-05-06 14:23 | 51.22715 | 6.51092 | 119 ft | 7 kts | 291° |
| 2026-05-06 14:24 | 51.22720 | 6.51078 | 120 ft | 0 kts | 310° |
| 2026-05-06 14:24 | 51.22748 | 6.51024 | 120 ft | 31 kts | 309° |
| 2026-05-06 14:24 | 51.23011 | 6.50485 | 195 ft | 78 kts | 310° |
| 2026-05-06 14:25 | 51.23362 | 6.49748 | 557 ft | 89 kts | 310° |
| 2026-05-06 14:25 | 51.23761 | 6.48981 | 884 ft | 86 kts | 315° |
| 2026-05-06 14:25 | 51.24154 | 6.48248 | 1166 ft | 93 kts | 317° |
| 2026-05-06 14:25 | 51.24622 | 6.47464 | 1474 ft | 100 kts | 317° |
| 2026-05-06 14:26 | 51.25033 | 6.46569 | 1817 ft | 101 kts | 310° |
| 2026-05-06 14:26 | 51.25443 | 6.45648 | 2142 ft | 102 kts | 311° |
| 2026-05-06 14:26 | 51.25860 | 6.44745 | 2507 ft | 100 kts | 311° |
| 2026-05-06 14:26 | 51.26287 | 6.43875 | 2833 ft | 101 kts | 314° |
| 2026-05-06 14:27 | 51.26734 | 6.43003 | 3125 ft | 103 kts | 314° |
| 2026-05-06 14:27 | 51.27192 | 6.42122 | 3463 ft | 103 kts | 314° |
| 2026-05-06 14:27 | 51.27642 | 6.41235 | 3811 ft | 102 kts | 313° |
| 2026-05-06 14:27 | 51.28088 | 6.40341 | 4132 ft | 104 kts | 312° |
| 2026-05-06 14:28 | 51.28521 | 6.39420 | 4474 ft | 103 kts | 310° |
| 2026-05-06 14:28 | 51.28945 | 6.38493 | 4767 ft | 104 kts | 313° |
| 2026-05-06 14:28 | 51.29417 | 6.37590 | 5040 ft | 108 kts | 314° |
| 2026-05-06 14:28 | 51.29940 | 6.36572 | 5062 ft | 129 kts | 315° |
| 2026-05-06 14:29 | 51.30710 | 6.35761 | 5051 ft | 138 kts | 341° |
| 2026-05-06 14:29 | 51.31664 | 6.35657 | 5054 ft | 140 kts | 12° |
| 2026-05-06 14:29 | 51.32487 | 6.36478 | 5056 ft | 144 kts | 44° |
| 2026-05-06 14:29 | 51.33193 | 6.37600 | 5057 ft | 143 kts | 36° |
| 2026-05-06 14:30 | 51.34057 | 6.38343 | 5055 ft | 141 kts | 17° |
| 2026-05-06 14:30 | 51.35008 | 6.38737 | 5055 ft | 141 kts | 13° |
| 2026-05-06 14:30 | 51.35965 | 6.39089 | 5058 ft | 141 kts | 12° |
| 2026-05-06 14:30 | 51.36601 | 6.39315 | 5057 ft | 141 kts | 12° |
| 2026-05-06 14:31 | 51.37867 | 6.39896 | 5063 ft | 143 kts | 16° |
| 2026-05-06 14:31 | 51.38829 | 6.40339 | 5064 ft | 145 kts | 15° |
| 2026-05-06 14:31 | 51.39803 | 6.40797 | 5057 ft | 146 kts | 15° |
| 2026-05-06 14:31 | 51.40783 | 6.41263 | 5030 ft | 148 kts | 16° |
| 2026-05-06 14:32 | 51.41772 | 6.41735 | 5003 ft | 148 kts | 15° |
| 2026-05-06 14:32 | 51.42754 | 6.42209 | 5001 ft | 147 kts | 16° |
| 2026-05-06 14:32 | 51.43737 | 6.42682 | 5006 ft | 148 kts | 16° |
| 2026-05-06 14:32 | 51.44726 | 6.43157 | 5011 ft | 150 kts | 16° |
| 2026-05-06 14:33 | 51.45732 | 6.43640 | 5009 ft | 152 kts | 16° |
| 2026-05-06 14:33 | 51.46729 | 6.44120 | 5023 ft | 151 kts | 16° |
| 2026-05-06 14:33 | 51.47739 | 6.44607 | 5020 ft | 149 kts | 16° |
| 2026-05-06 14:33 | 51.48730 | 6.45085 | 5018 ft | 149 kts | 16° |
| 2026-05-06 14:34 | 51.49703 | 6.45555 | 5019 ft | 147 kts | 16° |
| 2026-05-06 14:34 | 51.50676 | 6.46027 | 5015 ft | 145 kts | 17° |
| 2026-05-06 14:34 | 51.51512 | 6.46889 | 5009 ft | 147 kts | 47° |
| 2026-05-06 14:34 | 51.51915 | 6.48393 | 5011 ft | 152 kts | 79° |
| 2026-05-06 14:35 | 51.51927 | 6.49520 | 5010 ft | 152 kts | 87° |
| 2026-05-06 14:35 | 51.51917 | 6.51229 | 5012 ft | 154 kts | 85° |
| 2026-05-06 14:35 | 51.51929 | 6.52951 | 5014 ft | 154 kts | 85° |
| 2026-05-06 14:35 | 51.51948 | 6.54680 | 5016 ft | 156 kts | 85° |
| 2026-05-06 14:36 | 51.51966 | 6.56443 | 5012 ft | 159 kts | 85° |
| 2026-05-06 14:36 | 51.51984 | 6.58228 | 5013 ft | 161 kts | 85° |
| 2026-05-06 14:36 | 51.52000 | 6.60027 | 5008 ft | 162 kts | 86° |
| 2026-05-06 14:36 | 51.52017 | 6.61816 | 5000 ft | 158 kts | 85° |
| 2026-05-06 14:37 | 51.52034 | 6.63560 | 4996 ft | 154 kts | 85° |
| 2026-05-06 14:37 | 51.52048 | 6.65270 | 4994 ft | 153 kts | 85° |
| 2026-05-06 14:37 | 51.52064 | 6.66981 | 5003 ft | 155 kts | 86° |
| 2026-05-06 14:37 | 51.52080 | 6.68730 | 4999 ft | 158 kts | 85° |
| 2026-05-06 14:38 | 51.52097 | 6.70486 | 4994 ft | 156 kts | 85° |
| 2026-05-06 14:38 | 51.52109 | 6.72209 | 4991 ft | 153 kts | 85° |
| 2026-05-06 14:38 | 51.52124 | 6.73914 | 4991 ft | 152 kts | 85° |
| 2026-05-06 14:38 | 51.52139 | 6.75611 | 4993 ft | 152 kts | 85° |
| 2026-05-06 14:39 | 51.52152 | 6.77305 | 4993 ft | 152 kts | 85° |
| 2026-05-06 14:39 | 51.52166 | 6.78999 | 4992 ft | 151 kts | 85° |
| 2026-05-06 14:39 | 51.52180 | 6.80688 | 4991 ft | 151 kts | 85° |
| 2026-05-06 14:39 | 51.52192 | 6.82381 | 4993 ft | 152 kts | 85° |
| 2026-05-06 14:40 | 51.52206 | 6.84072 | 4993 ft | 152 kts | 85° |
| 2026-05-06 14:40 | 51.52219 | 6.85764 | 4992 ft | 152 kts | 86° |
| 2026-05-06 14:40 | 51.52230 | 6.87469 | 4994 ft | 152 kts | 86° |
| 2026-05-06 14:40 | 51.52242 | 6.89167 | 4992 ft | 152 kts | 86° |
| 2026-05-06 14:41 | 51.52255 | 6.90869 | 4994 ft | 153 kts | 86° |
| 2026-05-06 14:41 | 51.52267 | 6.92578 | 4995 ft | 153 kts | 86° |
| 2026-05-06 14:41 | 51.52278 | 6.94287 | 4992 ft | 153 kts | 86° |
| 2026-05-06 14:41 | 51.52289 | 6.95969 | 4991 ft | 153 kts | 86° |
| 2026-05-06 14:42 | 51.52300 | 6.97688 | 4989 ft | 152 kts | 86° |
| 2026-05-06 14:42 | 51.52311 | 6.99365 | 4992 ft | 153 kts | 86° |
| 2026-05-06 14:42 | 51.52320 | 7.01070 | 4991 ft | 153 kts | 86° |
| 2026-05-06 14:42 | 51.52331 | 7.02776 | 4992 ft | 153 kts | 86° |
| 2026-05-06 14:43 | 51.52341 | 7.04484 | 4989 ft | 153 kts | 86° |
| 2026-05-06 14:43 | 51.52351 | 7.06193 | 4994 ft | 153 kts | 86° |
| 2026-05-06 14:43 | 51.52361 | 7.07904 | 4993 ft | 153 kts | 86° |
| 2026-05-06 14:43 | 51.52371 | 7.09615 | 4993 ft | 153 kts | 86° |
| 2026-05-06 14:44 | 51.52378 | 7.11327 | 4991 ft | 154 kts | 86° |
| 2026-05-06 14:44 | 51.52387 | 7.13049 | 4989 ft | 154 kts | 86° |
| 2026-05-06 14:44 | 51.52396 | 7.14772 | 4987 ft | 154 kts | 86° |
| 2026-05-06 14:45 | 51.52413 | 7.18227 | 4986 ft | 155 kts | 86° |
| 2026-05-06 14:45 | 51.52421 | 7.19957 | 4984 ft | 155 kts | 86° |
| 2026-05-06 14:45 | 51.52429 | 7.21681 | 4982 ft | 155 kts | 86° |
| 2026-05-06 14:45 | 51.52436 | 7.23413 | 4989 ft | 156 kts | 86° |
| 2026-05-06 14:46 | 51.52443 | 7.25167 | 4991 ft | 158 kts | 87° |
| 2026-05-06 14:46 | 51.52450 | 7.26937 | 4987 ft | 159 kts | 86° |
| 2026-05-06 14:46 | 51.52457 | 7.28703 | 4990 ft | 158 kts | 87° |
| 2026-05-06 14:46 | 51.52463 | 7.30471 | 4987 ft | 159 kts | 87° |